createdAt,value
2022-08-28T00:02:01.831Z,101962.38
2022-08-28T00:04:30.751Z,101959.78
2022-08-28T00:06:57.990Z,101966.31
2022-08-28T00:09:24.725Z,101954.75
2022-08-28T00:11:54.366Z,101961.81
2022-08-28T00:14:21.147Z,101967.81
2022-08-28T00:16:49.510Z,101965.91
2022-08-28T00:19:20.114Z,101966.94
2022-08-28T00:21:49.951Z,101962.63
2022-08-28T00:24:17.721Z,101965.69
2022-08-28T00:27:03.372Z,101963.03
2022-08-28T00:29:31.245Z,101967.50
2022-08-28T00:32:00.424Z,101958.50
2022-08-28T00:34:33.105Z,101967.44
2022-08-28T00:37:00.779Z,101969.50
2022-08-28T00:39:29.753Z,101969.06
2022-08-28T00:41:57.929Z,101967.69
2022-08-28T00:44:29.500Z,101968.97
2022-08-28T00:46:57.899Z,101967.56
2022-08-28T00:49:29.345Z,101957.81
2022-08-28T00:52:05.855Z,101962.44
2022-08-28T00:54:45.383Z,101968.94
2022-08-28T00:57:34.141Z,101969.75
2022-08-28T01:00:01.665Z,101964.88
2022-08-28T01:02:28.784Z,101968.94
2022-08-28T01:04:55.943Z,101956.84
2022-08-28T01:07:23.359Z,101972.03
2022-08-28T01:09:54.052Z,101973.09
2022-08-28T01:12:29.066Z,101971.66
2022-08-28T01:15:00.117Z,101936.63
2022-08-28T01:17:33.845Z,101969.94
2022-08-28T01:20:09.638Z,101974.91
2022-08-28T01:22:44.336Z,101979.53
2022-08-28T01:25:15.135Z,101968.28
2022-08-28T01:27:42.246Z,101976.38
2022-08-28T01:30:12.057Z,101972.19
2022-08-28T01:32:42.480Z,101972.09
2022-08-28T01:35:13.680Z,101978.28
2022-08-28T01:37:40.903Z,101985.13
2022-08-28T01:40:10.162Z,101981.66
2022-08-28T01:42:44.189Z,101982.66
2022-08-28T01:45:14.551Z,101983.97
2022-08-28T01:47:43.197Z,101991.50
2022-08-28T01:50:15.983Z,101980.09
2022-08-28T01:52:43.126Z,101990.09
2022-08-28T01:55:10.755Z,101988.47
2022-08-28T01:57:49.676Z,101996.69
2022-08-28T02:00:20.509Z,101992.34
2022-08-28T02:02:48.402Z,101990.78
2022-08-28T02:05:15.183Z,101985.44
2022-08-28T02:07:41.730Z,101992.66
2022-08-28T02:10:11.951Z,101988.91
2022-08-28T02:12:38.801Z,101992.50
2022-08-28T02:15:07.491Z,102000.75
2022-08-28T02:17:36.877Z,101992.09
2022-08-28T02:20:05.663Z,101967.13
2022-08-28T02:22:32.470Z,101994.84
2022-08-28T02:24:59.122Z,102002.63
2022-08-28T02:27:27.747Z,102001.63
2022-08-28T02:29:57.793Z,101997.28
2022-08-28T02:32:27.993Z,102004.81
2022-08-28T02:34:57.306Z,102002.53
2022-08-28T02:37:26.356Z,102010.03
2022-08-28T02:39:57.365Z,102012.22
2022-08-28T02:42:24.264Z,101999.34
2022-08-28T02:44:50.861Z,102003.25
2022-08-28T02:47:18.409Z,102010.47
2022-08-28T02:49:48.133Z,102011.78
2022-08-28T02:52:14.743Z,102008.47
2022-08-28T02:54:41.422Z,102000.09
2022-08-28T02:57:08.769Z,102012.69
2022-08-28T02:59:36.419Z,102001.97
2022-08-28T03:02:07.375Z,102003.13
2022-08-28T03:04:36.064Z,102004.16
2022-08-28T03:07:03.654Z,101998.22
2022-08-28T03:09:30.653Z,102003.41
2022-08-28T03:11:57.217Z,102001.72
2022-08-28T03:14:26.410Z,102006.31
2022-08-28T03:16:53.038Z,102007.34
2022-08-28T03:19:19.913Z,102004.88
2022-08-28T03:21:48.695Z,102004.47
2022-08-28T03:24:21.317Z,102007.78
2022-08-28T03:26:47.982Z,102007.50
2022-08-28T03:29:15.973Z,102012.84
2022-08-28T03:31:42.725Z,102014.97
2022-08-28T03:34:09.582Z,101997.09
2022-08-28T03:36:36.169Z,102022.63
2022-08-28T03:39:05.757Z,102021.94
2022-08-28T03:41:34.662Z,102013.97
2022-08-28T03:44:04.857Z,102022.22
2022-08-28T03:46:33.050Z,102022.50
2022-08-28T03:49:01.320Z,102031.72
2022-08-28T03:51:31.753Z,102033.63
2022-08-28T03:54:05.161Z,102038.53
2022-08-28T03:56:32.303Z,102039.81
2022-08-28T03:59:01.636Z,102034.31
2022-08-28T04:01:28.314Z,102032.63
2022-08-28T04:03:54.909Z,102027.25
2022-08-28T04:06:21.510Z,102028.41
2022-08-28T04:08:48.204Z,102038.94
2022-08-28T04:11:15.173Z,102032.16
2022-08-28T04:13:42.079Z,102035.63
2022-08-28T04:16:13.955Z,102041.25
2022-08-28T04:18:42.325Z,102036.03
2022-08-28T04:21:15.025Z,102032.88
2022-08-28T04:23:43.306Z,102033.00
2022-08-28T04:26:13.040Z,102027.38
2022-08-28T04:28:39.662Z,102032.56
2022-08-28T04:31:09.404Z,102042.78
2022-08-28T04:33:36.630Z,102037.44
2022-08-28T04:36:09.201Z,102036.84
2022-08-28T04:38:40.357Z,102031.94
2022-08-28T04:41:12.005Z,102040.78
2022-08-28T04:43:38.610Z,102058.22
2022-08-28T04:46:12.470Z,102053.88
2022-08-28T04:48:40.361Z,102056.59
2022-08-28T04:51:10.186Z,102059.34
2022-08-28T04:53:41.035Z,102056.59
2022-08-28T04:56:10.921Z,102047.81
2022-08-28T04:58:38.565Z,102062.69
2022-08-28T05:01:15.271Z,102057.94
2022-08-28T05:03:42.303Z,102058.53
2022-08-28T05:06:09.190Z,102064.56
2022-08-28T05:08:36.009Z,102072.38
2022-08-28T05:11:33.047Z,102069.06
2022-08-28T05:14:06.879Z,102070.06
2022-08-28T05:16:39.602Z,102057.81
2022-08-28T05:19:06.275Z,102073.88
2022-08-28T05:21:35.283Z,102076.22
2022-08-28T05:24:01.928Z,102077.38
2022-08-28T05:26:29.954Z,102077.63
2022-08-28T05:28:58.175Z,102079.41
2022-08-28T05:31:26.364Z,102074.16
2022-08-28T05:33:53.912Z,102075.06
2022-08-28T05:36:23.295Z,102075.34
2022-08-28T05:38:56.913Z,102073.91
2022-08-28T05:41:30.233Z,102088.88
2022-08-28T05:44:02.637Z,102090.59
2022-08-28T05:46:29.615Z,102088.91
2022-08-28T05:48:57.664Z,102083.09
2022-08-28T05:51:26.446Z,102076.06
2022-08-28T05:53:54.015Z,102079.72
2022-08-28T05:56:25.977Z,102080.91
2022-08-28T05:58:52.675Z,102068.44
2022-08-28T06:01:28.520Z,102081.50
2022-08-28T06:03:57.456Z,102069.91
2022-08-28T06:06:25.573Z,102075.69
2022-08-28T06:08:59.369Z,102076.56
2022-08-28T06:11:30.344Z,102078.66
2022-08-28T06:13:59.907Z,102078.47
2022-08-28T06:16:28.933Z,102082.88
2022-08-28T06:18:55.836Z,102077.84
2022-08-28T06:21:27.058Z,102095.47
2022-08-28T06:23:56.157Z,102088.09
2022-08-28T06:26:25.209Z,102091.47
2022-08-28T06:28:53.133Z,102081.44
2022-08-28T06:31:23.238Z,102083.88
2022-08-28T06:33:54.164Z,102087.25
2022-08-28T06:36:21.122Z,102089.03
2022-08-28T06:38:47.697Z,102093.06
2022-08-28T06:41:15.694Z,102100.22
2022-08-28T06:43:42.919Z,102093.34
2022-08-28T06:46:09.791Z,102088.94
2022-08-28T06:48:36.779Z,102091.47
2022-08-28T06:51:11.181Z,102097.69
2022-08-28T06:53:39.983Z,102092.44
2022-08-28T06:56:26.086Z,102092.81
2022-08-28T06:58:55.295Z,102093.69
2022-08-28T07:01:29.336Z,102105.44
2022-08-28T07:04:00.523Z,102098.66
2022-08-28T07:06:28.280Z,102102.25
2022-08-28T07:08:57.083Z,102111.34
2022-08-28T07:11:29.927Z,102101.22
2022-08-28T07:13:57.822Z,102100.34
2022-08-28T07:16:27.676Z,102099.09
2022-08-28T07:18:57.311Z,102106.72
2022-08-28T07:21:23.984Z,102109.63
2022-08-28T07:23:53.478Z,102116.66
2022-08-28T07:26:27.847Z,102118.06
2022-08-28T07:29:09.588Z,102117.63
2022-08-28T07:31:38.661Z,102117.44
2022-08-28T07:34:05.304Z,102093.88
2022-08-28T07:36:32.387Z,102115.25
2022-08-28T07:39:00.141Z,102117.31
2022-08-28T07:41:32.356Z,102120.28
2022-08-28T07:44:18.670Z,102111.97
2022-08-28T07:46:45.933Z,102122.38
2022-08-28T07:49:15.589Z,102123.34
2022-08-28T07:51:42.527Z,102134.69
2022-08-28T07:54:15.455Z,102134.13
2022-08-28T07:56:44.643Z,102128.44
2022-08-28T07:59:12.181Z,102136.91
2022-08-28T08:01:46.686Z,102133.56
2022-08-28T08:04:16.140Z,102141.75
2022-08-28T08:06:43.686Z,102147.69
2022-08-28T08:09:14.374Z,102139.81
2022-08-28T08:11:41.462Z,102140.19
2022-08-28T08:14:08.481Z,102151.16
2022-08-28T08:16:39.195Z,102141.47
2022-08-28T08:19:09.989Z,102146.75
2022-08-28T08:21:37.919Z,102166.72
2022-08-28T08:24:05.293Z,102151.63
2022-08-28T08:26:33.181Z,102146.63
2022-08-28T08:29:00.256Z,102146.03
2022-08-28T08:31:32.785Z,102147.84
2022-08-28T08:34:02.575Z,102151.22
2022-08-28T08:36:33.263Z,102152.72
2022-08-28T08:39:06.496Z,102118.41
2022-08-28T08:41:48.319Z,102147.84
2022-08-28T08:44:23.972Z,102157.38
2022-08-28T08:47:13.284Z,102170.59
2022-08-28T08:49:49.848Z,102157.00
2022-08-28T08:52:37.299Z,102162.34
2022-08-28T08:55:36.765Z,102163.81
2022-08-28T08:58:22.339Z,102167.31
2022-08-28T09:01:00.962Z,102158.97
2022-08-28T09:03:50.215Z,102150.16
2022-08-28T09:06:48.268Z,102152.59
2022-08-28T09:09:26.950Z,102142.59
2022-08-28T09:12:01.773Z,102147.22
2022-08-28T09:14:52.863Z,102147.59
2022-08-28T09:17:27.609Z,102145.09
2022-08-28T09:19:54.735Z,102153.75
2022-08-28T09:22:22.499Z,102155.91
2022-08-28T09:24:49.484Z,102160.47
2022-08-28T09:27:26.144Z,102148.88
2022-08-28T09:30:11.418Z,102152.25
2022-08-28T09:32:46.791Z,102137.59
2022-08-28T09:35:15.856Z,102145.34
2022-08-28T09:37:45.040Z,102136.13
2022-08-28T09:40:16.841Z,102149.25
2022-08-28T09:43:22.471Z,102156.31
2022-08-28T09:45:58.361Z,102144.28
2022-08-28T09:48:35.996Z,102144.94
2022-08-28T09:51:13.666Z,102147.22
2022-08-28T09:54:05.097Z,102146.81
2022-08-28T09:56:39.893Z,102149.41
2022-08-28T09:59:07.659Z,102154.53
2022-08-28T10:01:46.718Z,102143.66
2022-08-28T10:04:16.727Z,102133.59
2022-08-28T10:06:56.584Z,102147.91
2022-08-28T10:10:00.449Z,102145.09
2022-08-28T10:13:06.261Z,102141.66
2022-08-28T10:16:00.351Z,102153.97
2022-08-28T10:18:37.474Z,102158.06
2022-08-28T10:21:17.148Z,102146.78
2022-08-28T10:24:02.600Z,102152.59
2022-08-28T10:26:40.395Z,102142.66
2022-08-28T10:29:21.901Z,102149.81
2022-08-28T10:32:01.942Z,102133.16
2022-08-28T10:34:42.699Z,102156.78
2022-08-28T10:37:21.012Z,102143.84
2022-08-28T10:40:01.028Z,102150.22
2022-08-28T10:42:38.995Z,102137.44
2022-08-28T10:45:08.658Z,102142.03
2022-08-28T10:47:42.577Z,102155.84
2022-08-28T10:50:26.701Z,102145.47
2022-08-28T10:53:41.073Z,102132.59
2022-08-28T10:56:17.603Z,102143.72
2022-08-28T10:58:48.760Z,102137.16
2022-08-28T11:01:31.916Z,102139.97
2022-08-28T11:04:01.651Z,102138.75
2022-08-28T11:06:37.152Z,102140.97
2022-08-28T11:09:34.032Z,102140.13
2022-08-28T11:12:07.186Z,102142.19
2022-08-28T11:14:48.321Z,102145.59
2022-08-28T11:17:30.590Z,102142.00
2022-08-28T11:20:24.987Z,102143.94
2022-08-28T11:23:15.583Z,102144.53
2022-08-28T11:25:54.821Z,102141.22
2022-08-28T11:28:25.138Z,102142.09
2022-08-28T11:31:06.958Z,102144.78
2022-08-28T11:33:39.230Z,102144.19
2022-08-28T11:36:28.239Z,102145.44
2022-08-28T11:38:54.947Z,102143.56
2022-08-28T11:41:32.326Z,102143.09
2022-08-28T11:44:13.859Z,102142.97
2022-08-28T11:46:43.680Z,102144.16
2022-08-28T11:49:32.108Z,102147.50
2022-08-28T11:52:44.824Z,102148.97
2022-08-28T11:55:17.264Z,102149.78
2022-08-28T12:00:42.861Z,102141.75
2022-08-28T12:03:27.652Z,102146.28
2022-08-28T12:05:57.121Z,102144.34
2022-08-28T12:08:45.057Z,102146.25
2022-08-28T12:11:40.400Z,102142.19
2022-08-28T12:14:09.241Z,102135.81
2022-08-28T12:17:00.878Z,102125.97
2022-08-28T12:19:40.236Z,102139.22
2022-08-28T12:22:12.533Z,102128.97
2022-08-28T12:24:51.526Z,102129.59
2022-08-28T12:27:18.581Z,102120.16
2022-08-28T12:29:49.629Z,102129.16
2022-08-28T12:32:25.363Z,102124.88
2022-08-28T12:34:57.957Z,102137.13
2022-08-28T12:37:58.560Z,102126.38
2022-08-28T12:40:33.576Z,102129.16
2022-08-28T12:43:09.059Z,102135.75
2022-08-28T12:45:58.919Z,102132.06
2022-08-28T12:48:56.412Z,102126.97
2022-08-28T12:51:26.628Z,102116.31
2022-08-28T12:53:59.166Z,102117.13
2022-08-28T12:56:30.051Z,102115.22
2022-08-28T12:59:16.536Z,102119.81
2022-08-28T13:01:46.075Z,102122.53
2022-08-28T13:04:36.091Z,102112.88
2022-08-28T13:07:17.474Z,102112.22
2022-08-28T13:09:51.766Z,102113.03
2022-08-28T13:12:51.715Z,102108.72
2022-08-28T13:15:49.572Z,102111.38
2022-08-28T13:18:34.662Z,102118.22
2022-08-28T13:21:13.456Z,102119.53
2022-08-28T13:23:40.295Z,102111.97
2022-08-28T13:26:07.546Z,102115.19
2022-08-28T13:28:40.035Z,102110.47
2022-08-28T13:31:10.551Z,102115.16
2022-08-28T13:33:39.065Z,102116.88
2022-08-28T13:36:22.615Z,102111.13
2022-08-28T13:38:49.128Z,102107.72
2022-08-28T13:41:15.779Z,102110.47
2022-08-28T13:43:45.644Z,102098.25
2022-08-28T13:46:14.548Z,102101.44
2022-08-28T13:48:41.158Z,102097.34
2022-08-28T13:51:14.236Z,102100.53
2022-08-28T13:53:47.376Z,102095.75
2022-08-28T13:56:14.015Z,102103.91
2022-08-28T13:58:40.650Z,102106.69
2022-08-28T14:01:07.369Z,102107.31
2022-08-28T14:03:37.569Z,102100.84
2022-08-28T14:06:09.258Z,102088.88
2022-08-28T14:08:35.942Z,102092.81
2022-08-28T14:11:02.773Z,102086.63
2022-08-28T14:13:29.517Z,102084.34
2022-08-28T14:15:56.963Z,102068.44
2022-08-28T14:18:25.114Z,102070.34
2022-08-28T14:20:52.049Z,102081.88
2022-08-28T14:23:20.752Z,102090.63
2022-08-28T14:25:47.589Z,102091.78
2022-08-28T14:28:17.170Z,102079.81
2022-08-28T14:30:48.164Z,102084.00
2022-08-28T14:33:18.772Z,102068.81
2022-08-28T14:35:47.358Z,102079.56
2022-08-28T14:38:14.279Z,102088.91
2022-08-28T14:40:43.120Z,102095.31
2022-08-28T14:43:11.536Z,102086.44
2022-08-28T14:45:47.700Z,102091.75
2022-08-28T14:48:15.701Z,102088.53
2022-08-28T14:50:46.529Z,102081.19
2022-08-28T14:53:14.037Z,102077.19
2022-08-28T14:55:46.724Z,102084.69
2022-08-28T14:58:14.390Z,102059.38
2022-08-28T15:00:47.196Z,102072.72
2022-08-28T15:03:15.178Z,102075.94
2022-08-28T15:05:42.374Z,102067.47
2022-08-28T15:08:10.560Z,102068.97
2022-08-28T15:10:38.542Z,102070.72
2022-08-28T15:13:10.162Z,102069.25
2022-08-28T15:15:39.681Z,102064.53
2022-08-28T15:18:07.371Z,102064.94
2022-08-28T15:20:45.436Z,102059.34
2022-08-28T15:23:14.000Z,102064.06
2022-08-28T15:25:43.180Z,102066.19
2022-08-28T15:28:10.182Z,102068.34
2022-08-28T15:30:37.102Z,102063.19
2022-08-28T15:33:04.150Z,102063.59
2022-08-28T15:35:30.909Z,101994.91
2022-08-28T15:37:57.704Z,102065.97
2022-08-28T15:40:42.637Z,102054.91
2022-08-28T15:43:09.257Z,102062.72
2022-08-28T15:45:37.848Z,102065.00
2022-08-28T15:48:04.646Z,102070.72
2022-08-28T15:50:31.344Z,102061.44
2022-08-28T15:52:58.929Z,102064.59
2022-08-28T15:55:26.175Z,102061.47
2022-08-28T15:57:53.046Z,102052.31
2022-08-28T16:00:19.808Z,102055.97
2022-08-28T16:02:46.458Z,102058.34
2022-08-28T16:05:13.082Z,102059.25
2022-08-28T16:07:41.983Z,102060.69
2022-08-28T16:10:09.689Z,102053.19
2022-08-28T16:12:40.105Z,102064.13
2022-08-28T16:15:09.673Z,102053.88
2022-08-28T16:17:36.418Z,102061.56
2022-08-28T16:20:12.901Z,102055.16
2022-08-28T16:22:39.920Z,102061.31
2022-08-28T16:25:07.475Z,102057.22
2022-08-28T16:27:34.250Z,102059.13
2022-08-28T16:30:01.077Z,102052.97
2022-08-28T16:32:29.993Z,102063.69
2022-08-28T16:34:58.271Z,102062.44
2022-08-28T16:37:39.792Z,102056.38
2022-08-28T16:40:08.899Z,102063.47
2022-08-28T16:42:38.582Z,102064.81
2022-08-28T16:45:08.637Z,102070.97
2022-08-28T16:47:37.834Z,102070.72
2022-08-28T16:50:11.844Z,102066.41
2022-08-28T16:52:39.142Z,102060.56
2022-08-28T16:55:08.634Z,102068.84
2022-08-28T16:57:35.717Z,102065.34
2022-08-28T17:00:02.727Z,102066.75
2022-08-28T17:02:30.227Z,102063.69
2022-08-28T17:05:00.504Z,102058.41
2022-08-28T17:07:27.123Z,102063.31
2022-08-28T17:09:56.205Z,102065.63
2022-08-28T17:12:23.035Z,102063.66
2022-08-28T17:14:49.649Z,102060.81
2022-08-28T17:17:16.236Z,102064.34
2022-08-28T17:19:42.799Z,102067.28
2022-08-28T17:22:30.223Z,102057.13
2022-08-28T17:24:58.799Z,102059.66
2022-08-28T17:27:26.449Z,102063.88
2022-08-28T17:29:55.951Z,102070.88
2022-08-28T17:32:22.540Z,102068.50
2022-08-28T17:34:50.364Z,102080.47
2022-08-28T17:37:20.741Z,102071.41
2022-08-28T17:39:48.377Z,102064.19
2022-08-28T17:42:15.015Z,102059.66
2022-08-28T17:44:41.609Z,102041.56
2022-08-28T17:47:08.372Z,102072.94
2022-08-28T17:49:37.655Z,102069.63
2022-08-28T17:52:04.674Z,102084.47
2022-08-28T17:54:33.837Z,102078.41
2022-08-28T17:57:00.461Z,102077.94
2022-08-28T17:59:27.799Z,102077.88
2022-08-28T18:01:55.220Z,102079.94
2022-08-28T18:04:24.890Z,102079.38
2022-08-28T18:06:54.298Z,102089.50
2022-08-28T18:09:21.825Z,102089.59
2022-08-28T18:11:48.579Z,102087.59
2022-08-28T18:14:15.262Z,102089.78
2022-08-28T18:16:43.067Z,102084.50
2022-08-28T18:19:13.725Z,102089.94
2022-08-28T18:21:41.104Z,102085.88
2022-08-28T18:24:08.290Z,102092.31
2022-08-28T18:26:35.135Z,102090.63
2022-08-28T18:29:01.702Z,102091.75
2022-08-28T18:31:30.792Z,102093.16
2022-08-28T18:33:57.536Z,102090.47
2022-08-28T18:36:24.345Z,102093.97
2022-08-28T18:38:51.423Z,102105.97
2022-08-28T18:41:20.037Z,102103.75
2022-08-28T18:43:49.001Z,102094.47
2022-08-28T18:46:15.862Z,102108.84
2022-08-28T18:48:42.974Z,102111.50
2022-08-28T18:51:11.867Z,102108.59
2022-08-28T18:53:39.376Z,102112.94
2022-08-28T18:56:10.620Z,102120.75
2022-08-28T18:58:39.759Z,102114.38
2022-08-28T19:01:09.456Z,102120.63
2022-08-28T19:03:36.100Z,102131.53
2022-08-28T19:06:03.400Z,102132.75
2022-08-28T19:08:30.342Z,102138.81
2022-08-28T19:10:56.959Z,102135.91
2022-08-28T19:13:23.512Z,102143.22
2022-08-28T19:15:52.625Z,102139.22
2022-08-28T19:18:22.049Z,102139.06
2022-08-28T19:20:48.711Z,102149.09
2022-08-28T19:23:17.796Z,102145.16
2022-08-28T19:25:45.820Z,102155.88
2022-08-28T19:28:12.582Z,102145.88
2022-08-28T19:30:39.301Z,102148.81
2022-08-28T19:33:06.189Z,102152.25
2022-08-28T19:35:33.854Z,102142.25
2022-08-28T19:38:01.278Z,102152.78
2022-08-28T19:40:31.641Z,102165.03
2022-08-28T19:42:58.287Z,102162.78
2022-08-28T19:45:27.363Z,102162.44
2022-08-28T19:47:54.024Z,102169.34
2022-08-28T19:50:20.681Z,102160.19
2022-08-28T19:52:47.407Z,102158.09
2022-08-28T19:55:20.194Z,102163.63
2022-08-28T19:57:48.433Z,102171.56
2022-08-28T20:00:18.380Z,102163.94
2022-08-28T20:02:45.869Z,102172.56
2022-08-28T20:05:12.795Z,102174.47
2022-08-28T20:07:39.386Z,102175.66
2022-08-28T20:10:07.332Z,102177.22
2022-08-28T20:12:34.416Z,102181.50
2022-08-28T20:15:03.773Z,102176.63
2022-08-28T20:17:30.847Z,102173.16
2022-08-28T20:20:02.366Z,102190.41
2022-08-28T20:22:31.813Z,102182.63
2022-08-28T20:24:58.777Z,102188.31
2022-08-28T20:27:25.900Z,102190.38
2022-08-28T20:29:54.936Z,102196.41
2022-08-28T20:32:21.549Z,102197.75
2022-08-28T20:34:48.093Z,102199.97
2022-08-28T20:37:16.777Z,102201.00
2022-08-28T20:39:43.478Z,102203.06
2022-08-28T20:42:10.558Z,102195.78
2022-08-28T20:44:37.528Z,102195.28
2022-08-28T20:47:04.384Z,102200.09
2022-08-28T20:49:33.472Z,102200.59
2022-08-28T20:52:06.139Z,102205.53
2022-08-28T20:54:37.274Z,102206.06
2022-08-28T20:57:07.717Z,102197.34
2022-08-28T20:59:40.159Z,102206.66
2022-08-28T21:02:13.809Z,102211.44
2022-08-28T21:04:42.695Z,102223.22
2022-08-28T21:07:10.348Z,102225.44
2022-08-28T21:10:04.086Z,102231.09
2022-08-28T21:12:26.447Z,102232.28
2022-08-28T21:14:53.034Z,102228.09
2022-08-28T21:17:30.276Z,102225.34
2022-08-28T21:20:02.855Z,102232.91
2022-08-28T21:22:31.182Z,102227.72
2022-08-28T21:24:57.800Z,102240.81
2022-08-28T21:27:25.000Z,102236.47
2022-08-28T21:29:55.103Z,102245.94
2022-08-28T21:32:21.654Z,102235.56
2022-08-28T21:34:50.450Z,102234.53
2022-08-28T21:37:17.044Z,102224.16
2022-08-28T21:39:43.835Z,102233.19
2022-08-28T21:42:10.423Z,102237.31
2022-08-28T21:44:38.599Z,102225.72
2022-08-28T21:47:05.515Z,102235.72
2022-08-28T21:49:35.226Z,102241.41
2022-08-28T21:52:03.084Z,102239.97
2022-08-28T21:54:30.284Z,102239.28
2022-08-28T21:56:58.593Z,102242.16
2022-08-28T21:59:28.466Z,102229.34
2022-08-28T22:02:04.656Z,102232.78
2022-08-28T22:04:31.481Z,102237.41
2022-08-28T22:07:00.508Z,102236.16
2022-08-28T22:09:27.490Z,102244.59
2022-08-28T22:11:54.092Z,102238.38
2022-08-28T22:14:21.019Z,102241.28
2022-08-28T22:16:47.806Z,102246.25
2022-08-28T22:19:14.458Z,102236.72
2022-08-28T22:21:59.621Z,102239.31
2022-08-28T22:24:26.236Z,102246.47
2022-08-28T22:26:53.262Z,102239.84
2022-08-28T22:29:24.759Z,102246.19
2022-08-28T22:31:51.686Z,102247.53
2022-08-28T22:34:20.779Z,102246.84
2022-08-28T22:36:49.686Z,102250.91
2022-08-28T22:39:16.246Z,102240.81
2022-08-28T22:41:45.053Z,102247.34
2022-08-28T22:44:16.211Z,102251.28
2022-08-28T22:46:42.747Z,102251.72
2022-08-28T22:49:11.815Z,102240.75
2022-08-28T22:51:38.346Z,102248.22
2022-08-28T22:54:05.457Z,102250.72
2022-08-28T22:56:32.059Z,102253.75
2022-08-28T22:58:58.572Z,102243.75
2022-08-28T23:01:26.534Z,102247.69
2022-08-28T23:03:53.320Z,102243.91
2022-08-28T23:06:21.558Z,102244.53
2022-08-28T23:08:48.154Z,102242.03
2022-08-28T23:11:15.244Z,102237.56
2022-08-28T23:13:42.110Z,102245.25
2022-08-28T23:16:09.404Z,102252.19
2022-08-28T23:18:57.555Z,102247.28
2022-08-28T23:21:26.475Z,102243.25
2022-08-28T23:23:57.125Z,102240.94
2022-08-28T23:26:24.777Z,102243.84
2022-08-28T23:28:51.757Z,102225.03
2022-08-28T23:31:18.795Z,102243.84
2022-08-28T23:33:46.033Z,102231.44
2022-08-28T23:36:12.647Z,102235.34
2022-08-28T23:38:43.080Z,102245.31
2022-08-28T23:41:10.724Z,102230.97
2022-08-28T23:43:37.304Z,102238.09
2022-08-28T23:46:04.713Z,102238.22
2022-08-28T23:48:32.109Z,102215.84
2022-08-28T23:50:58.993Z,102212.22
2022-08-28T23:53:25.882Z,102241.13
2022-08-28T23:55:54.160Z,102233.59
2022-08-28T23:58:22.293Z,102233.03
